sensor_id;sensor_type;location;lat;lon;timestamp;pressure;altitude;pressure_sealevel;temperature;humidity
75359;BME280;64046;51.978;5.934;2023-05-16T00:02:22;101749.47;;;14.40;82.70
75359;BME280;64046;51.978;5.934;2023-05-16T00:04:56;101744.13;;;14.41;82.71
75359;BME280;64046;51.978;5.934;2023-05-16T00:07:27;101743.19;;;14.42;82.66
75359;BME280;64046;51.978;5.934;2023-05-16T00:09:56;101745.97;;;14.39;82.50
75359;BME280;64046;51.978;5.934;2023-05-16T00:12:34;101749.91;;;14.49;82.07
75359;BME280;64046;51.978;5.934;2023-05-16T00:17:50;101751.53;;;14.33;82.00
75359;BME280;64046;51.978;5.934;2023-05-16T00:20:25;101755.03;;;14.33;81.78
75359;BME280;64046;51.978;5.934;2023-05-16T00:22:56;101755.50;;;14.23;82.14
75359;BME280;64046;51.978;5.934;2023-05-16T00:25:32;101755.44;;;14.24;81.44
75359;BME280;64046;51.978;5.934;2023-05-16T00:28:05;101757.31;;;14.41;81.09
75359;BME280;64046;51.978;5.934;2023-05-16T00:30:36;101762.28;;;14.28;80.83
75359;BME280;64046;51.978;5.934;2023-05-16T00:33:08;101754.72;;;14.40;80.47
75359;BME280;64046;51.978;5.934;2023-05-16T00:35:38;101758.84;;;14.26;80.59
75359;BME280;64046;51.978;5.934;2023-05-16T00:38:10;101759.00;;;14.23;80.37
75359;BME280;64046;51.978;5.934;2023-05-16T00:40:40;101757.06;;;14.27;80.34
75359;BME280;64046;51.978;5.934;2023-05-16T00:43:13;101767.06;;;14.39;79.50
75359;BME280;64046;51.978;5.934;2023-05-16T00:45:43;101769.81;;;14.17;80.30
75359;BME280;64046;51.978;5.934;2023-05-16T00:48:20;101765.78;;;14.08;80.19
75359;BME280;64046;51.978;5.934;2023-05-16T00:50:51;101775.75;;;14.01;80.40
75359;BME280;64046;51.978;5.934;2023-05-16T00:53:23;101771.47;;;13.99;80.69
75359;BME280;64046;51.978;5.934;2023-05-16T00:55:55;101769.88;;;13.95;80.74
75359;BME280;64046;51.978;5.934;2023-05-16T00:58:29;101766.13;;;14.00;80.38
75359;BME280;64046;51.978;5.934;2023-05-16T01:01:00;101761.44;;;13.87;80.58
75359;BME280;64046;51.978;5.934;2023-05-16T01:03:32;101765.59;;;13.92;80.46
75359;BME280;64046;51.978;5.934;2023-05-16T01:06:06;101765.28;;;13.79;80.41
75359;BME280;64046;51.978;5.934;2023-05-16T01:08:38;101764.22;;;13.63;80.76
75359;BME280;64046;51.978;5.934;2023-05-16T01:11:13;101767.41;;;13.71;80.45
75359;BME280;64046;51.978;5.934;2023-05-16T01:14:01;101762.84;;;13.75;80.14
75359;BME280;64046;51.978;5.934;2023-05-16T01:16:38;101770.88;;;13.72;80.27
75359;BME280;64046;51.978;5.934;2023-05-16T01:19:13;101770.75;;;13.75;79.74
75359;BME280;64046;51.978;5.934;2023-05-16T01:22:05;101767.41;;;13.71;79.29
75359;BME280;64046;51.978;5.934;2023-05-16T01:24:46;101774.91;;;13.60;79.86
75359;BME280;64046;51.978;5.934;2023-05-16T01:27:25;101779.16;;;13.62;79.90
75359;BME280;64046;51.978;5.934;2023-05-16T01:29:57;101779.81;;;13.47;80.13
75359;BME280;64046;51.978;5.934;2023-05-16T01:32:27;101766.81;;;13.42;80.27
75359;BME280;64046;51.978;5.934;2023-05-16T01:34:58;101771.72;;;13.52;80.14
75359;BME280;64046;51.978;5.934;2023-05-16T01:37:30;101775.06;;;13.55;80.15
75359;BME280;64046;51.978;5.934;2023-05-16T01:40:11;101766.19;;;13.58;79.79
75359;BME280;64046;51.978;5.934;2023-05-16T01:42:46;101771.44;;;13.58;79.80
75359;BME280;64046;51.978;5.934;2023-05-16T01:45:25;101782.06;;;13.56;79.76
75359;BME280;64046;51.978;5.934;2023-05-16T01:51:33;101783.56;;;13.41;79.58
75359;BME280;64046;51.978;5.934;2023-05-16T01:54:10;101777.47;;;13.39;79.39
75359;BME280;64046;51.978;5.934;2023-05-16T01:56:47;101769.63;;;13.38;79.07
75359;BME280;64046;51.978;5.934;2023-05-16T01:59:23;101774.06;;;13.37;78.78
75359;BME280;64046;51.978;5.934;2023-05-16T02:01:55;101778.31;;;13.18;79.01
75359;BME280;64046;51.978;5.934;2023-05-16T02:04:27;101779.91;;;13.22;78.90
75359;BME280;64046;51.978;5.934;2023-05-16T02:06:57;101776.91;;;13.09;78.99
75359;BME280;64046;51.978;5.934;2023-05-16T02:09:27;101777.75;;;13.09;78.80
75359;BME280;64046;51.978;5.934;2023-05-16T02:11:57;101781.00;;;13.16;78.45
75359;BME280;64046;51.978;5.934;2023-05-16T02:14:36;101781.38;;;13.29;77.81
75359;BME280;64046;51.978;5.934;2023-05-16T02:17:06;101786.44;;;13.11;78.35
75359;BME280;64046;51.978;5.934;2023-05-16T02:19:41;101796.44;;;13.25;77.85
75359;BME280;64046;51.978;5.934;2023-05-16T02:22:12;101791.72;;;13.11;78.01
75359;BME280;64046;51.978;5.934;2023-05-16T02:24:46;101796.91;;;13.13;77.98
75359;BME280;64046;51.978;5.934;2023-05-16T02:27:18;101797.75;;;13.13;78.20
75359;BME280;64046;51.978;5.934;2023-05-16T02:29:54;101801.59;;;13.28;77.75
75359;BME280;64046;51.978;5.934;2023-05-16T02:32:28;101802.56;;;13.26;77.86
75359;BME280;64046;51.978;5.934;2023-05-16T02:35:03;101805.13;;;13.27;78.02
75359;BME280;64046;51.978;5.934;2023-05-16T02:37:33;101813.63;;;13.12;78.43
75359;BME280;64046;51.978;5.934;2023-05-16T02:40:09;101801.81;;;13.22;78.39
75359;BME280;64046;51.978;5.934;2023-05-16T02:42:40;101801.56;;;13.06;78.87
75359;BME280;64046;51.978;5.934;2023-05-16T02:45:13;101813.28;;;13.21;78.65
75359;BME280;64046;51.978;5.934;2023-05-16T02:47:45;101813.94;;;13.04;79.29
75359;BME280;64046;51.978;5.934;2023-05-16T02:50:21;101807.91;;;13.01;79.74
75359;BME280;64046;51.978;5.934;2023-05-16T02:52:51;101821.50;;;12.90;80.18
75359;BME280;64046;51.978;5.934;2023-05-16T02:55:27;101823.94;;;12.94;80.43
75359;BME280;64046;51.978;5.934;2023-05-16T02:57:56;101830.41;;;12.86;80.76
75359;BME280;64046;51.978;5.934;2023-05-16T03:00:32;101829.06;;;12.97;80.46
75359;BME280;64046;51.978;5.934;2023-05-16T03:03:04;101831.06;;;12.91;81.24
75359;BME280;64046;51.978;5.934;2023-05-16T03:05:37;101823.78;;;12.75;81.91
75359;BME280;64046;51.978;5.934;2023-05-16T03:08:10;101833.94;;;12.85;82.00
75359;BME280;64046;51.978;5.934;2023-05-16T03:10:41;101830.06;;;12.71;82.31
75359;BME280;64046;51.978;5.934;2023-05-16T03:13:10;101824.69;;;12.74;82.32
75359;BME280;64046;51.978;5.934;2023-05-16T03:15:50;101840.69;;;12.92;81.94
75359;BME280;64046;51.978;5.934;2023-05-16T03:18:20;101835.16;;;12.76;82.36
75359;BME280;64046;51.978;5.934;2023-05-16T03:20:49;101842.97;;;12.77;82.72
75359;BME280;64046;51.978;5.934;2023-05-16T03:23:23;101842.06;;;12.78;82.92
75359;BME280;64046;51.978;5.934;2023-05-16T03:25:57;101847.69;;;12.93;82.47
75359;BME280;64046;51.978;5.934;2023-05-16T03:28:26;101844.75;;;12.77;83.06
75359;BME280;64046;51.978;5.934;2023-05-16T03:31:03;101844.03;;;12.97;82.39
75359;BME280;64046;51.978;5.934;2023-05-16T03:33:33;101847.09;;;12.85;82.68
75359;BME280;64046;51.978;5.934;2023-05-16T03:36:03;101849.66;;;12.86;82.37
75359;BME280;64046;51.978;5.934;2023-05-16T03:38:36;101852.94;;;12.93;82.33
75359;BME280;64046;51.978;5.934;2023-05-16T03:41:06;101855.50;;;12.94;82.27
75359;BME280;64046;51.978;5.934;2023-05-16T03:43:38;101862.66;;;12.91;82.12
75359;BME280;64046;51.978;5.934;2023-05-16T03:46:13;101863.03;;;13.04;81.69
75359;BME280;64046;51.978;5.934;2023-05-16T03:48:43;101859.16;;;12.90;81.77
75359;BME280;64046;51.978;5.934;2023-05-16T03:51:13;101867.56;;;13.00;81.77
75359;BME280;64046;51.978;5.934;2023-05-16T03:53:44;101867.63;;;12.98;81.81
75359;BME280;64046;51.978;5.934;2023-05-16T03:56:14;101863.69;;;12.87;81.85
75359;BME280;64046;51.978;5.934;2023-05-16T03:58:47;101870.72;;;12.86;82.11
75359;BME280;64046;51.978;5.934;2023-05-16T04:01:19;101871.94;;;13.01;81.83
75359;BME280;64046;51.978;5.934;2023-05-16T04:03:52;101879.41;;;12.88;82.03
75359;BME280;64046;51.978;5.934;2023-05-16T04:06:23;101880.63;;;13.03;81.61
75359;BME280;64046;51.978;5.934;2023-05-16T04:08:56;101878.03;;;13.02;81.59
75359;BME280;64046;51.978;5.934;2023-05-16T04:11:27;101879.81;;;13.01;81.12
75359;BME280;64046;51.978;5.934;2023-05-16T04:14:01;101886.34;;;13.14;80.98
75359;BME280;64046;51.978;5.934;2023-05-16T04:16:33;101874.78;;;13.19;80.82
75359;BME280;64046;51.978;5.934;2023-05-16T04:19:06;101884.41;;;13.20;80.81
75359;BME280;64046;51.978;5.934;2023-05-16T04:21:39;101884.72;;;13.10;80.92
75359;BME280;64046;51.978;5.934;2023-05-16T04:24:13;101887.50;;;13.29;80.68
75359;BME280;64046;51.978;5.934;2023-05-16T04:26:46;101888.22;;;13.35;80.66
75359;BME280;64046;51.978;5.934;2023-05-16T04:29:17;101896.34;;;13.28;80.79
75359;BME280;64046;51.978;5.934;2023-05-16T04:31:55;101900.06;;;13.46;80.20
75359;BME280;64046;51.978;5.934;2023-05-16T04:34:25;101894.34;;;13.35;80.83
75359;BME280;64046;51.978;5.934;2023-05-16T04:36:56;101889.53;;;13.46;80.64
75359;BME280;64046;51.978;5.934;2023-05-16T04:39:33;101884.13;;;13.49;80.54
75359;BME280;64046;51.978;5.934;2023-05-16T04:42:17;101891.50;;;13.63;80.52
75359;BME280;64046;51.978;5.934;2023-05-16T04:44:47;101883.09;;;13.54;80.95
75359;BME280;64046;51.978;5.934;2023-05-16T04:47:23;101891.34;;;13.66;80.83
75359;BME280;64046;51.978;5.934;2023-05-16T04:49:54;101898.81;;;13.55;81.38
75359;BME280;64046;51.978;5.934;2023-05-16T04:52:27;101896.81;;;13.62;81.32
75359;BME280;64046;51.978;5.934;2023-05-16T04:54:57;101907.91;;;13.70;81.26
75359;BME280;64046;51.978;5.934;2023-05-16T04:57:29;101903.63;;;13.67;81.04
75359;BME280;64046;51.978;5.934;2023-05-16T05:00:09;101912.09;;;13.76;81.20
75359;BME280;64046;51.978;5.934;2023-05-16T05:02:41;101919.66;;;13.83;81.33
75359;BME280;64046;51.978;5.934;2023-05-16T05:05:17;101923.13;;;13.86;81.23
75359;BME280;64046;51.978;5.934;2023-05-16T05:08:04;101914.47;;;14.04;80.10
75359;BME280;64046;51.978;5.934;2023-05-16T05:10:34;101911.75;;;13.83;81.00
75359;BME280;64046;51.978;5.934;2023-05-16T05:13:03;101925.00;;;13.82;80.90
75359;BME280;64046;51.978;5.934;2023-05-16T05:15:32;101924.94;;;13.83;80.66
75359;BME280;64046;51.978;5.934;2023-05-16T05:18:05;101924.88;;;14.07;79.79
75359;BME280;64046;51.978;5.934;2023-05-16T05:20:36;101927.25;;;14.13;79.25
75359;BME280;64046;51.978;5.934;2023-05-16T05:23:08;101928.41;;;14.06;78.95
75359;BME280;64046;51.978;5.934;2023-05-16T05:25:38;101930.97;;;14.08;78.65
75359;BME280;64046;51.978;5.934;2023-05-16T05:28:07;101930.00;;;14.10;78.32
75359;BME280;64046;51.978;5.934;2023-05-16T05:30:38;101937.53;;;14.19;77.84
75359;BME280;64046;51.978;5.934;2023-05-16T05:33:10;101936.41;;;14.25;77.02
75359;BME280;64046;51.978;5.934;2023-05-16T05:35:40;101939.63;;;14.11;76.90
75359;BME280;64046;51.978;5.934;2023-05-16T05:38:13;101941.63;;;14.27;76.61
75359;BME280;64046;51.978;5.934;2023-05-16T05:40:44;101941.19;;;14.15;76.81
75359;BME280;64046;51.978;5.934;2023-05-16T05:43:17;101938.06;;;14.28;76.16
75359;BME280;64046;51.978;5.934;2023-05-16T05:45:48;101942.84;;;14.40;75.54
75359;BME280;64046;51.978;5.934;2023-05-16T05:48:22;101944.00;;;14.53;75.36
75359;BME280;64046;51.978;5.934;2023-05-16T05:50:53;101949.69;;;14.44;75.52
75359;BME280;64046;51.978;5.934;2023-05-16T05:53:27;101949.34;;;14.52;74.64
75359;BME280;64046;51.978;5.934;2023-05-16T05:55:59;101955.84;;;14.65;73.65
75359;BME280;64046;51.978;5.934;2023-05-16T05:58:38;101957.94;;;14.57;73.91
75359;BME280;64046;51.978;5.934;2023-05-16T06:01:13;101965.41;;;14.68;73.71
75359;BME280;64046;51.978;5.934;2023-05-16T06:03:48;101957.69;;;14.63;73.49
75359;BME280;64046;51.978;5.934;2023-05-16T06:06:23;101960.44;;;14.60;73.29
75359;BME280;64046;51.978;5.934;2023-05-16T06:08:55;101966.97;;;14.51;73.56
75359;BME280;64046;51.978;5.934;2023-05-16T06:11:42;101963.66;;;14.46;73.49
75359;BME280;64046;51.978;5.934;2023-05-16T06:14:14;101971.97;;;14.37;73.31
75359;BME280;64046;51.978;5.934;2023-05-16T06:16:44;101976.84;;;14.26;73.54
75359;BME280;64046;51.978;5.934;2023-05-16T06:19:17;101967.28;;;14.44;73.44
75359;BME280;64046;51.978;5.934;2023-05-16T06:21:50;101972.31;;;14.50;73.50
75359;BME280;64046;51.978;5.934;2023-05-16T06:24:22;101976.09;;;14.43;73.74
75359;BME280;64046;51.978;5.934;2023-05-16T06:26:52;101980.25;;;14.48;73.47
75359;BME280;64046;51.978;5.934;2023-05-16T06:29:22;101975.00;;;14.48;73.27
75359;BME280;64046;51.978;5.934;2023-05-16T06:32:02;101971.00;;;14.60;73.37
75359;BME280;64046;51.978;5.934;2023-05-16T06:34:34;101977.94;;;14.63;73.34
75359;BME280;64046;51.978;5.934;2023-05-16T06:37:04;101972.75;;;14.60;73.52
75359;BME280;64046;51.978;5.934;2023-05-16T06:39:47;101977.09;;;14.62;73.32
75359;BME280;64046;51.978;5.934;2023-05-16T06:42:16;101975.31;;;14.61;73.37
75359;BME280;64046;51.978;5.934;2023-05-16T06:44:46;101976.25;;;14.62;72.67
75359;BME280;64046;51.978;5.934;2023-05-16T06:47:16;101982.34;;;14.62;72.57
75359;BME280;64046;51.978;5.934;2023-05-16T06:49:53;101984.06;;;14.84;71.90
75359;BME280;64046;51.978;5.934;2023-05-16T06:52:29;101986.47;;;14.90;71.80
75359;BME280;64046;51.978;5.934;2023-05-16T06:54:58;101982.41;;;14.81;71.80
75359;BME280;64046;51.978;5.934;2023-05-16T06:57:31;101977.06;;;15.03;71.75
75359;BME280;64046;51.978;5.934;2023-05-16T07:00:01;101986.19;;;14.96;71.59
75359;BME280;64046;51.978;5.934;2023-05-16T07:02:34;101983.34;;;15.20;70.32
75359;BME280;64046;51.978;5.934;2023-05-16T07:05:07;101984.53;;;15.33;70.03
75359;BME280;64046;51.978;5.934;2023-05-16T07:07:56;101978.19;;;15.56;68.36
75359;BME280;64046;51.978;5.934;2023-05-16T07:10:26;101977.38;;;15.54;69.17
75359;BME280;64046;51.978;5.934;2023-05-16T07:12:57;101980.41;;;15.85;68.39
75359;BME280;64046;51.978;5.934;2023-05-16T07:15:27;101981.03;;;15.90;67.64
75359;BME280;64046;51.978;5.934;2023-05-16T07:17:57;101985.66;;;16.04;66.94
75359;BME280;64046;51.978;5.934;2023-05-16T07:20:30;101981.28;;;16.39;65.59
75359;BME280;64046;51.978;5.934;2023-05-16T07:23:03;101966.72;;;16.48;65.08
75359;BME280;64046;51.978;5.934;2023-05-16T07:25:32;101970.38;;;16.63;63.28
75359;BME280;64046;51.978;5.934;2023-05-16T07:28:04;101972.63;;;16.88;61.98
75359;BME280;64046;51.978;5.934;2023-05-16T07:30:33;101983.53;;;17.00;61.10
75359;BME280;64046;51.978;5.934;2023-05-16T07:33:03;101980.63;;;16.87;56.36
75359;BME280;64046;51.978;5.934;2023-05-16T07:35:35;101988.81;;;17.00;55.40
75359;BME280;64046;51.978;5.934;2023-05-16T07:38:07;101977.06;;;16.70;55.14
75359;BME280;64046;51.978;5.934;2023-05-16T07:40:41;101979.00;;;16.67;55.80
75359;BME280;64046;51.978;5.934;2023-05-16T07:43:11;101983.34;;;16.85;54.76
75359;BME280;64046;51.978;5.934;2023-05-16T07:45:42;101978.72;;;17.06;53.55
75359;BME280;64046;51.978;5.934;2023-05-16T07:48:11;101988.94;;;17.14;53.49
75359;BME280;64046;51.978;5.934;2023-05-16T07:50:44;101989.22;;;17.25;52.62
75359;BME280;64046;51.978;5.934;2023-05-16T07:53:20;101991.66;;;17.12;52.25
75359;BME280;64046;51.978;5.934;2023-05-16T07:55:54;101994.50;;;17.09;51.65
75359;BME280;64046;51.978;5.934;2023-05-16T07:58:25;101990.25;;;16.89;52.09
75359;BME280;64046;51.978;5.934;2023-05-16T08:00:54;101986.38;;;16.77;51.73
75359;BME280;64046;51.978;5.934;2023-05-16T08:03:24;101990.75;;;16.78;51.72
75359;BME280;64046;51.978;5.934;2023-05-16T08:06:01;101987.56;;;16.72;51.50
75359;BME280;64046;51.978;5.934;2023-05-16T08:08:33;101996.00;;;16.45;51.87
75359;BME280;64046;51.978;5.934;2023-05-16T08:11:10;101992.03;;;16.54;51.41
75359;BME280;64046;51.978;5.934;2023-05-16T08:13:42;101995.91;;;16.47;51.44
75359;BME280;64046;51.978;5.934;2023-05-16T08:16:12;101998.06;;;16.56;50.94
75359;BME280;64046;51.978;5.934;2023-05-16T08:18:44;101991.75;;;16.93;50.06
75359;BME280;64046;51.978;5.934;2023-05-16T08:21:16;101998.91;;;17.09;50.02
75359;BME280;64046;51.978;5.934;2023-05-16T08:23:46;102002.25;;;17.12;49.44
75359;BME280;64046;51.978;5.934;2023-05-16T08:26:17;101996.81;;;17.32;49.47
75359;BME280;64046;51.978;5.934;2023-05-16T08:28:53;102011.63;;;17.36;48.82
75359;BME280;64046;51.978;5.934;2023-05-16T08:31:25;102002.97;;;16.99;49.47
75359;BME280;64046;51.978;5.934;2023-05-16T08:33:57;102002.06;;;16.82;49.86
75359;BME280;64046;51.978;5.934;2023-05-16T08:36:30;101997.78;;;16.80;49.56
75359;BME280;64046;51.978;5.934;2023-05-16T08:39:00;102017.69;;;16.52;49.82
75359;BME280;64046;51.978;5.934;2023-05-16T08:41:30;102008.22;;;16.48;49.64
75359;BME280;64046;51.978;5.934;2023-05-16T08:44:00;102010.88;;;16.48;50.12
75359;BME280;64046;51.978;5.934;2023-05-16T08:46:31;101997.47;;;16.68;50.39
75359;BME280;64046;51.978;5.934;2023-05-16T08:49:09;101999.88;;;16.90;49.41
75359;BME280;64046;51.978;5.934;2023-05-16T08:51:45;101997.84;;;17.29;49.32
75359;BME280;64046;51.978;5.934;2023-05-16T08:54:15;102002.47;;;17.25;49.45
75359;BME280;64046;51.978;5.934;2023-05-16T08:56:45;102002.00;;;17.17;49.76
75359;BME280;64046;51.978;5.934;2023-05-16T08:59:16;102000.53;;;17.11;49.87
75359;BME280;64046;51.978;5.934;2023-05-16T09:01:47;101999.00;;;17.07;50.24
75359;BME280;64046;51.978;5.934;2023-05-16T09:04:18;102001.59;;;17.25;49.92
75359;BME280;64046;51.978;5.934;2023-05-16T09:06:53;102002.84;;;17.51;49.04
75359;BME280;64046;51.978;5.934;2023-05-16T09:09:26;102002.84;;;17.51;48.25
75359;BME280;64046;51.978;5.934;2023-05-16T09:11:59;102004.97;;;17.76;47.48
75359;BME280;64046;51.978;5.934;2023-05-16T09:14:29;102009.63;;;17.73;47.29
75359;BME280;64046;51.978;5.934;2023-05-16T09:17:03;102007.91;;;18.04;45.59
75359;BME280;64046;51.978;5.934;2023-05-16T09:19:36;102001.91;;;18.16;44.93
75359;BME280;64046;51.978;5.934;2023-05-16T09:22:11;101998.13;;;18.20;44.95
75359;BME280;64046;51.978;5.934;2023-05-16T09:24:45;102004.16;;;17.92;45.97
75359;BME280;64046;51.978;5.934;2023-05-16T09:27:15;102019.03;;;17.78;46.39
75359;BME280;64046;51.978;5.934;2023-05-16T09:29:49;102023.88;;;17.70;45.15
75359;BME280;64046;51.978;5.934;2023-05-16T09:32:19;102030.06;;;17.21;44.95
75359;BME280;64046;51.978;5.934;2023-05-16T09:34:52;102024.47;;;17.10;45.26
75359;BME280;64046;51.978;5.934;2023-05-16T09:37:35;102027.28;;;17.07;45.98
75359;BME280;64046;51.978;5.934;2023-05-16T09:40:09;102011.38;;;17.07;46.33
75359;BME280;64046;51.978;5.934;2023-05-16T09:42:42;102009.50;;;17.09;46.73
75359;BME280;64046;51.978;5.934;2023-05-16T09:45:22;102006.88;;;17.25;47.07
75359;BME280;64046;51.978;5.934;2023-05-16T09:48:00;102010.78;;;17.35;47.04
75359;BME280;64046;51.978;5.934;2023-05-16T09:50:46;102010.44;;;17.57;46.70
75359;BME280;64046;51.978;5.934;2023-05-16T09:53:47;101999.53;;;17.79;46.51
75359;BME280;64046;51.978;5.934;2023-05-16T09:56:48;102001.75;;;18.03;45.46
75359;BME280;64046;51.978;5.934;2023-05-16T09:59:18;102009.69;;;17.87;45.77
75359;BME280;64046;51.978;5.934;2023-05-16T10:01:56;102000.47;;;18.10;45.53
75359;BME280;64046;51.978;5.934;2023-05-16T10:04:26;102003.31;;;17.91;45.63
75359;BME280;64046;51.978;5.934;2023-05-16T10:07:00;102001.75;;;18.03;45.54
75359;BME280;64046;51.978;5.934;2023-05-16T10:09:34;102006.41;;;18.00;45.36
75359;BME280;64046;51.978;5.934;2023-05-16T10:12:11;102012.63;;;17.83;44.81
75359;BME280;64046;51.978;5.934;2023-05-16T10:14:44;102008.81;;;17.71;45.00
75359;BME280;64046;51.978;5.934;2023-05-16T10:17:15;102012.66;;;17.65;46.03
75359;BME280;64046;51.978;5.934;2023-05-16T10:19:49;102008.81;;;17.71;46.72
75359;BME280;64046;51.978;5.934;2023-05-16T10:22:21;102002.84;;;17.83;46.82
75359;BME280;64046;51.978;5.934;2023-05-16T10:25:00;102007.22;;;17.84;46.98
75359;BME280;64046;51.978;5.934;2023-05-16T10:27:37;102014.56;;;17.79;47.18
75359;BME280;64046;51.978;5.934;2023-05-16T10:30:11;102007.97;;;17.86;47.45
75359;BME280;64046;51.978;5.934;2023-05-16T10:32:44;102002.13;;;17.97;47.50
75359;BME280;64046;51.978;5.934;2023-05-16T10:35:18;101997.16;;;18.07;46.98
75359;BME280;64046;51.978;5.934;2023-05-16T10:37:53;102003.97;;;18.11;45.67
75359;BME280;64046;51.978;5.934;2023-05-16T10:40:38;101999.59;;;18.26;43.81
75359;BME280;64046;51.978;5.934;2023-05-16T10:43:09;102000.66;;;18.07;44.22
75359;BME280;64046;51.978;5.934;2023-05-16T10:45:42;102004.91;;;18.26;43.77
75359;BME280;64046;51.978;5.934;2023-05-16T10:48:14;101990.59;;;18.28;43.27
75359;BME280;64046;51.978;5.934;2023-05-16T10:50:45;101992.13;;;18.32;42.65
75359;BME280;64046;51.978;5.934;2023-05-16T10:53:22;101992.66;;;18.54;41.85
75359;BME280;64046;51.978;5.934;2023-05-16T10:56:16;101991.44;;;18.59;41.09
75359;BME280;64046;51.978;5.934;2023-05-16T10:59:01;101991.72;;;18.55;40.40
75359;BME280;64046;51.978;5.934;2023-05-16T11:01:32;102001.59;;;18.37;40.77
75359;BME280;64046;51.978;5.934;2023-05-16T11:04:10;102009.84;;;18.32;40.54
75359;BME280;64046;51.978;5.934;2023-05-16T11:06:45;102000.09;;;18.32;41.36
75359;BME280;64046;51.978;5.934;2023-05-16T11:09:24;102009.09;;;18.30;41.77
75359;BME280;64046;51.978;5.934;2023-05-16T11:12:01;102012.06;;;18.24;42.07
75359;BME280;64046;51.978;5.934;2023-05-16T11:14:41;102007.97;;;18.34;41.93
75359;BME280;64046;51.978;5.934;2023-05-16T11:17:14;102009.09;;;18.30;41.56
75359;BME280;64046;51.978;5.934;2023-05-16T11:19:54;101996.56;;;18.32;40.97
75359;BME280;64046;51.978;5.934;2023-05-16T11:22:29;102001.03;;;18.31;39.51
75359;BME280;64046;51.978;5.934;2023-05-16T11:25:01;101995.44;;;18.36;38.11
75359;BME280;64046;51.978;5.934;2023-05-16T11:27:36;102004.41;;;18.64;37.80
75359;BME280;64046;51.978;5.934;2023-05-16T11:30:12;101995.63;;;18.63;37.42
75359;BME280;64046;51.978;5.934;2023-05-16T11:32:46;101999.13;;;18.64;38.41
75359;BME280;64046;51.978;5.934;2023-05-16T11:35:22;101998.38;;;18.76;38.05
75359;BME280;64046;51.978;5.934;2023-05-16T11:37:52;102004.28;;;18.51;38.35
75359;BME280;64046;51.978;5.934;2023-05-16T11:40:27;102003.97;;;18.57;38.25
75359;BME280;64046;51.978;5.934;2023-05-16T11:43:11;102017.78;;;18.62;38.04
75359;BME280;64046;51.978;5.934;2023-05-16T11:45:53;102005.53;;;18.45;39.10
75359;BME280;64046;51.978;5.934;2023-05-16T11:48:27;102013.56;;;18.44;39.57
75359;BME280;64046;51.978;5.934;2023-05-16T11:50:57;102019.00;;;18.26;39.48
75359;BME280;64046;51.978;5.934;2023-05-16T11:53:36;102017.38;;;18.24;39.06
75359;BME280;64046;51.978;5.934;2023-05-16T11:56:07;102010.72;;;18.32;38.85
75359;BME280;64046;51.978;5.934;2023-05-16T11:58:40;102015.28;;;18.45;38.85
75359;BME280;64046;51.978;5.934;2023-05-16T12:01:12;102015.56;;;18.40;39.22
75359;BME280;64046;51.978;5.934;2023-05-16T12:03:42;102018.03;;;18.43;39.02
75359;BME280;64046;51.978;5.934;2023-05-16T12:06:11;102020.09;;;18.38;39.24
75359;BME280;64046;51.978;5.934;2023-05-16T12:08:49;102016.91;;;18.47;39.20
75359;BME280;64046;51.978;5.934;2023-05-16T12:11:22;102019.84;;;18.43;39.36
75359;BME280;64046;51.978;5.934;2023-05-16T12:14:09;102016.84;;;18.63;38.75
75359;BME280;64046;51.978;5.934;2023-05-16T12:16:44;102026.00;;;18.43;39.01
75359;BME280;64046;51.978;5.934;2023-05-16T12:19:24;102031.44;;;18.56;38.57
75359;BME280;64046;51.978;5.934;2023-05-16T12:21:58;102024.03;;;18.47;38.97
75359;BME280;64046;51.978;5.934;2023-05-16T12:24:40;102030.81;;;18.67;39.00
75359;BME280;64046;51.978;5.934;2023-05-16T12:27:10;102035.50;;;18.47;39.04
75359;BME280;64046;51.978;5.934;2023-05-16T12:29:53;102027.38;;;18.65;38.92
75359;BME280;64046;51.978;5.934;2023-05-16T12:32:35;102025.50;;;18.67;38.90
75359;BME280;64046;51.978;5.934;2023-05-16T12:35:10;102023.69;;;18.67;39.18
75359;BME280;64046;51.978;5.934;2023-05-16T12:37:42;102033.28;;;18.70;39.30
75359;BME280;64046;51.978;5.934;2023-05-16T12:40:18;102031.78;;;18.80;38.81
75359;BME280;64046;51.978;5.934;2023-05-16T12:42:52;102033.09;;;18.73;39.13
75359;BME280;64046;51.978;5.934;2023-05-16T12:45:26;102038.50;;;18.72;39.35
75359;BME280;64046;51.978;5.934;2023-05-16T12:48:14;102045.16;;;18.79;39.09
75359;BME280;64046;51.978;5.934;2023-05-16T12:50:44;102050.16;;;18.69;38.99
75359;BME280;64046;51.978;5.934;2023-05-16T12:53:18;102053.63;;;18.55;39.07
75359;BME280;64046;51.978;5.934;2023-05-16T12:55:49;102056.88;;;18.60;39.25
75359;BME280;64046;51.978;5.934;2023-05-16T12:58:19;102065.91;;;18.42;39.58
75359;BME280;64046;51.978;5.934;2023-05-16T13:00:53;102068.47;;;18.43;39.81
75359;BME280;64046;51.978;5.934;2023-05-16T13:03:24;102071.31;;;18.24;40.38
75359;BME280;64046;51.978;5.934;2023-05-16T13:06:03;102066.75;;;18.26;40.80
75359;BME280;64046;51.978;5.934;2023-05-16T13:08:35;102070.34;;;18.25;41.10
75359;BME280;64046;51.978;5.934;2023-05-16T13:11:07;102070.63;;;18.21;41.47
75359;BME280;64046;51.978;5.934;2023-05-16T13:13:42;102072.59;;;18.17;41.71
75359;BME280;64046;51.978;5.934;2023-05-16T13:16:15;102068.47;;;18.27;41.97
75359;BME280;64046;51.978;5.934;2023-05-16T13:18:48;102072.84;;;18.28;42.39
75359;BME280;64046;51.978;5.934;2023-05-16T13:21:20;102076.25;;;18.30;42.43
75359;BME280;64046;51.978;5.934;2023-05-16T13:23:53;102068.38;;;18.45;42.58
75359;BME280;64046;51.978;5.934;2023-05-16T13:26:23;102070.75;;;18.49;42.12
75359;BME280;64046;51.978;5.934;2023-05-16T13:28:53;102064.91;;;18.59;41.87
75359;BME280;64046;51.978;5.934;2023-05-16T13:31:31;102066.63;;;18.60;41.72